High Hill, Texas
Current Conditions -  °F | °C
As of 7:35 AM on Sunday 23 Nov 2014 (Local Time) from K3T5 Reporting Station
Haze Haze  
Wind Chill: 58°   Ceiling: Unl
Heat Index: 58°   Visibility: 4mi
Dew Point: 58°   Wind: 0mph
Humidity: 98%   Direction: NA
Pressure: 29.67"   Gusts: NA
Location:  29.7125°N, 96.9231°W
Report Text: K3T5 231335Z AUTO 00000KT 4SM BR CLR 15/14 A2967 RMK AO2 T01450142
Loading
Personal Weather Stations






























Interactive Weather Map New forecast layout! Learn more

10-Day Weather Forecast

Advertisements
Track Severe Weather on mobile